createdAt,value
2023-03-12T00:00:59.640Z,3.90
2023-03-12T00:01:59.687Z,4.00
2023-03-12T00:02:59.638Z,3.80
2023-03-12T00:03:59.646Z,4.30
2023-03-12T00:04:59.575Z,4.30
2023-03-12T00:06:09.061Z,4.00
2023-03-12T00:06:59.577Z,4.00
2023-03-12T00:07:59.588Z,4.80
2023-03-12T00:08:59.532Z,4.40
2023-03-12T00:09:59.544Z,4.40
2023-03-12T00:10:59.537Z,4.70
2023-03-12T00:11:59.521Z,4.50
2023-03-12T00:12:59.516Z,4.50
2023-03-12T00:13:59.468Z,4.70
2023-03-12T00:14:59.461Z,4.80
2023-03-12T00:15:59.531Z,5.00
2023-03-12T00:16:59.501Z,6.00
2023-03-12T00:17:59.440Z,5.50
2023-03-12T00:18:59.420Z,6.20
2023-03-12T00:19:59.429Z,5.50
2023-03-12T00:20:59.446Z,5.40
2023-03-12T00:21:59.404Z,6.80
2023-03-12T00:22:59.378Z,7.40
2023-03-12T00:23:59.413Z,6.70
2023-03-12T00:24:59.365Z,6.30
2023-03-12T00:25:59.406Z,6.50
2023-03-12T00:26:59.394Z,6.60
2023-03-12T00:27:59.376Z,6.50
2023-03-12T00:28:59.325Z,7.00
2023-03-12T00:29:59.353Z,6.80
2023-03-12T00:30:59.460Z,6.80
2023-03-12T00:31:59.336Z,6.50
2023-03-12T00:32:59.344Z,6.30
2023-03-12T00:33:59.271Z,6.40
2023-03-12T00:34:59.270Z,6.30
2023-03-12T00:35:59.279Z,7.30
2023-03-12T00:36:59.241Z,6.40
2023-03-12T00:37:59.250Z,6.40
2023-03-12T00:38:59.259Z,8.60
2023-03-12T00:39:59.219Z,7.60
2023-03-12T00:40:59.182Z,7.60
2023-03-12T00:41:59.252Z,7.60
2023-03-12T00:42:59.196Z,7.60
2023-03-12T00:43:59.186Z,7.80
2023-03-12T00:44:59.163Z,8.20
2023-03-12T00:45:59.182Z,7.40
2023-03-12T00:46:59.153Z,7.00
2023-03-12T00:47:59.186Z,6.60
2023-03-12T00:48:59.165Z,6.80
2023-03-12T00:49:59.170Z,7.60
2023-03-12T00:50:59.104Z,7.00
2023-03-12T00:51:59.108Z,8.40
2023-03-12T00:52:59.095Z,9.20
2023-03-12T00:53:59.106Z,9.10
2023-03-12T00:54:59.056Z,8.10
2023-03-12T00:55:59.067Z,7.60
2023-03-12T00:56:59.028Z,7.80
2023-03-12T00:57:59.077Z,7.30
2023-03-12T00:58:59.063Z,7.10
2023-03-12T00:59:59.008Z,7.80
2023-03-12T01:00:59.069Z,8.10
2023-03-12T01:01:59.008Z,7.80
2023-03-12T01:02:58.994Z,8.10
2023-03-12T01:03:59.027Z,7.60
2023-03-12T01:04:59.098Z,7.30
2023-03-12T01:05:58.942Z,7.60
2023-03-12T01:06:58.969Z,7.90
2023-03-12T01:07:58.940Z,7.10
2023-03-12T01:08:58.896Z,7.10
2023-03-12T01:09:58.931Z,7.70
2023-03-12T01:10:58.975Z,8.70
2023-03-12T01:11:58.898Z,8.00
2023-03-12T01:12:58.864Z,7.90
2023-03-12T01:13:58.864Z,7.40
2023-03-12T01:14:58.876Z,7.40
2023-03-12T01:15:58.965Z,7.20
2023-03-12T01:16:58.853Z,7.80
2023-03-12T01:17:58.842Z,7.60
2023-03-12T01:18:58.844Z,7.70
2023-03-12T01:19:58.810Z,8.20
2023-03-12T01:20:58.806Z,8.90
2023-03-12T01:21:58.791Z,9.50
2023-03-12T01:22:58.781Z,8.20
2023-03-12T01:23:58.765Z,8.70
2023-03-12T01:24:58.799Z,8.80
2023-03-12T01:25:58.757Z,9.40
2023-03-12T01:26:58.727Z,8.50
2023-03-12T01:27:58.721Z,8.60
2023-03-12T01:28:58.719Z,8.20
2023-03-12T01:29:58.730Z,8.90
2023-03-12T01:30:58.738Z,8.10
2023-03-12T01:31:58.724Z,8.60
2023-03-12T01:32:58.727Z,8.90
2023-03-12T01:33:58.682Z,9.10
2023-03-12T01:34:58.655Z,8.50
2023-03-12T01:35:58.755Z,8.60
2023-03-12T01:36:58.645Z,8.30
2023-03-12T01:37:58.634Z,8.10
2023-03-12T01:38:58.662Z,9.00
2023-03-12T01:39:58.607Z,7.70
2023-03-12T01:40:58.595Z,7.80
2023-03-12T01:41:58.584Z,8.40
2023-03-12T01:42:58.577Z,8.90
2023-03-12T01:43:58.567Z,8.10
2023-03-12T01:44:58.559Z,9.30
2023-03-12T01:45:58.601Z,10.40
2023-03-12T01:46:58.520Z,9.20
2023-03-12T01:47:58.551Z,9.60
2023-03-12T01:48:58.514Z,9.70
2023-03-12T01:49:58.506Z,9.50
2023-03-12T01:50:58.519Z,9.70
2023-03-12T01:51:58.482Z,9.30
2023-03-12T01:52:58.476Z,8.00
2023-03-12T01:53:58.489Z,8.80
2023-03-12T01:54:58.444Z,10.30
2023-03-12T01:55:58.481Z,8.40
2023-03-12T01:56:58.469Z,9.50
2023-03-12T01:57:58.431Z,8.50
2023-03-12T01:58:58.420Z,8.90
2023-03-12T01:59:58.413Z,9.00
2023-03-12T02:00:58.416Z,9.70
2023-03-12T02:01:58.377Z,9.30
2023-03-12T02:02:58.400Z,8.80
2023-03-12T02:03:58.365Z,9.50
2023-03-12T02:04:58.349Z,9.30
2023-03-12T02:05:58.365Z,9.60
2023-03-12T02:06:58.372Z,10.50
2023-03-12T02:07:58.340Z,10.90
2023-03-12T02:08:58.331Z,11.30
2023-03-12T02:09:58.318Z,9.40
2023-03-12T02:10:58.289Z,10.30
2023-03-12T02:11:58.283Z,10.20
2023-03-12T02:12:58.325Z,10.20
2023-03-12T02:13:58.269Z,10.60
2023-03-12T02:14:58.274Z,10.80
2023-03-12T02:15:58.234Z,11.10
2023-03-12T02:16:58.231Z,9.60
2023-03-12T02:17:58.232Z,10.30
2023-03-12T02:18:58.202Z,10.80
2023-03-12T02:19:58.203Z,10.20
2023-03-12T02:20:58.194Z,9.80
2023-03-12T02:21:58.198Z,9.90
2023-03-12T02:22:58.194Z,10.60
2023-03-12T02:23:58.172Z,10.10
2023-03-12T02:24:58.158Z,10.50
2023-03-12T02:25:58.200Z,11.10
2023-03-12T02:26:58.150Z,10.90
2023-03-12T02:27:58.113Z,10.00
2023-03-12T02:28:58.103Z,9.60
2023-03-12T02:29:58.127Z,10.00
2023-03-12T02:30:58.102Z,9.10
2023-03-12T02:31:58.224Z,11.00
2023-03-12T02:32:58.127Z,10.60
2023-03-12T02:33:58.056Z,10.20
2023-03-12T02:34:58.045Z,10.20
2023-03-12T02:35:58.149Z,10.50
2023-03-12T02:36:58.056Z,10.50
2023-03-12T02:37:58.024Z,10.50
2023-03-12T02:38:58.004Z,10.20
2023-03-12T02:39:58.021Z,9.60
2023-03-12T02:40:57.986Z,10.00
2023-03-12T02:41:58.008Z,9.70
2023-03-12T02:42:57.976Z,9.20
2023-03-12T02:43:57.948Z,9.50
2023-03-12T02:44:57.945Z,9.10
2023-03-12T02:45:57.978Z,9.30
2023-03-12T02:46:57.979Z,9.20
2023-03-12T02:47:57.905Z,9.80
2023-03-12T02:48:57.900Z,9.60
2023-03-12T02:49:57.892Z,9.30
2023-03-12T02:50:57.921Z,9.00
2023-03-12T02:51:57.913Z,9.40
2023-03-12T02:52:57.889Z,9.30
2023-03-12T02:53:57.877Z,9.30
2023-03-12T02:54:57.902Z,10.10
2023-03-12T02:55:57.841Z,9.70
2023-03-12T02:56:57.845Z,9.10
2023-03-12T02:57:57.834Z,10.10
2023-03-12T02:58:57.851Z,10.30
2023-03-12T02:59:57.833Z,9.90
2023-03-12T03:00:57.872Z,9.40
2023-03-12T03:01:57.795Z,10.20
2023-03-12T03:02:57.841Z,9.40
2023-03-12T03:03:57.847Z,8.80
2023-03-12T03:04:57.771Z,8.80
2023-03-12T03:05:57.731Z,8.80
2023-03-12T03:06:57.767Z,9.90
2023-03-12T03:07:57.723Z,10.90
2023-03-12T03:08:57.706Z,9.00
2023-03-12T03:09:57.695Z,8.90
2023-03-12T03:10:57.690Z,9.20
2023-03-12T03:11:57.671Z,8.60
2023-03-12T03:12:57.773Z,9.40
2023-03-12T03:13:57.667Z,8.60
2023-03-12T03:14:57.667Z,8.60
2023-03-12T03:15:57.921Z,9.20
2023-03-12T03:16:57.685Z,8.60
2023-03-12T03:17:57.617Z,9.30
2023-03-12T03:18:57.646Z,9.90
2023-03-12T03:19:57.599Z,9.30
2023-03-12T03:20:57.614Z,9.10
2023-03-12T03:21:57.588Z,10.20
2023-03-12T03:22:57.577Z,9.00
2023-03-12T03:23:57.602Z,8.80
2023-03-12T03:24:57.562Z,9.00
2023-03-12T03:25:57.566Z,9.70
2023-03-12T03:26:57.542Z,9.30
2023-03-12T03:27:57.523Z,9.10
2023-03-12T03:28:57.524Z,8.90
2023-03-12T03:29:57.517Z,11.20
2023-03-12T03:30:57.552Z,9.20
2023-03-12T03:31:57.475Z,11.20
2023-03-12T03:32:57.496Z,11.40
2023-03-12T03:33:57.450Z,10.90
2023-03-12T03:34:57.472Z,9.40
2023-03-12T03:35:57.469Z,10.90
2023-03-12T03:36:57.422Z,11.90
2023-03-12T03:37:57.433Z,11.10
2023-03-12T03:38:57.496Z,10.50
2023-03-12T03:39:57.406Z,10.90
2023-03-12T03:40:57.409Z,10.70
2023-03-12T03:41:57.371Z,10.60
2023-03-12T03:42:57.391Z,9.80
2023-03-12T03:43:57.380Z,9.50
2023-03-12T03:44:57.356Z,8.80
2023-03-12T03:45:57.337Z,9.10
2023-03-12T03:46:57.345Z,8.60
2023-03-12T03:47:57.300Z,8.70
2023-03-12T03:48:57.305Z,9.50
2023-03-12T03:49:57.299Z,10.10
2023-03-12T03:50:57.281Z,8.80
2023-03-12T03:51:57.277Z,8.50
2023-03-12T03:52:57.291Z,8.70
2023-03-12T03:53:57.254Z,8.30
2023-03-12T03:54:57.278Z,8.20
2023-03-12T03:55:57.257Z,8.90
2023-03-12T03:56:57.247Z,8.60
2023-03-12T03:57:57.230Z,8.50
2023-03-12T03:58:57.204Z,8.50
2023-03-12T03:59:57.207Z,10.20
2023-03-12T04:00:57.189Z,9.10
2023-03-12T04:01:57.181Z,9.20
2023-03-12T04:02:57.191Z,9.20
2023-03-12T04:03:57.154Z,9.70
2023-03-12T04:04:57.142Z,8.80
2023-03-12T04:05:57.244Z,8.30
2023-03-12T04:06:57.138Z,8.80
2023-03-12T04:07:57.098Z,8.30
2023-03-12T04:08:57.130Z,8.90
2023-03-12T04:09:57.090Z,8.40
2023-03-12T04:10:57.093Z,8.30
2023-03-12T04:11:57.073Z,8.80
2023-03-12T04:12:57.054Z,8.30
2023-03-12T04:13:57.071Z,8.60
2023-03-12T04:14:57.066Z,9.40
2023-03-12T04:15:57.050Z,9.20
2023-03-12T04:16:57.025Z,9.80
2023-03-12T04:17:57.045Z,10.10
2023-03-12T04:18:57.027Z,9.80
2023-03-12T04:19:57.014Z,10.20
2023-03-12T04:20:57.000Z,10.30
2023-03-12T04:21:56.952Z,9.40
2023-03-12T04:22:56.967Z,9.70
2023-03-12T04:23:56.935Z,9.90
2023-03-12T04:24:56.962Z,9.50
2023-03-12T04:25:56.930Z,9.70
2023-03-12T04:26:56.918Z,9.90
2023-03-12T04:27:56.914Z,9.30
2023-03-12T04:28:56.929Z,9.80
2023-03-12T04:29:56.894Z,9.30
2023-03-12T04:30:56.938Z,9.60
2023-03-12T04:31:56.881Z,8.70
2023-03-12T04:32:56.878Z,8.50
2023-03-12T04:33:56.858Z,8.20
2023-03-12T04:34:56.839Z,8.60
2023-03-12T04:35:56.902Z,8.50
2023-03-12T04:36:56.830Z,8.20
2023-03-12T04:37:56.799Z,7.60
2023-03-12T04:38:56.815Z,8.10
2023-03-12T04:39:56.884Z,8.00
2023-03-12T04:40:56.811Z,8.10
2023-03-12T04:41:56.809Z,8.60
2023-03-12T04:42:56.789Z,9.50
2023-03-12T04:43:56.743Z,7.90
2023-03-12T04:44:56.743Z,8.60
2023-03-12T04:45:56.742Z,8.10
2023-03-12T04:46:56.798Z,8.50
2023-03-12T04:47:56.728Z,8.70
2023-03-12T04:48:56.707Z,9.80
2023-03-12T04:49:56.672Z,8.80
2023-03-12T04:50:56.694Z,8.90
2023-03-12T04:51:56.689Z,8.10
2023-03-12T04:52:56.687Z,8.70
2023-03-12T04:53:56.642Z,9.00
2023-03-12T04:54:56.670Z,8.50
2023-03-12T04:55:56.630Z,9.40
2023-03-12T04:56:56.661Z,10.10
2023-03-12T04:57:56.670Z,8.70
2023-03-12T04:58:56.644Z,8.70
2023-03-12T04:59:56.588Z,9.30
2023-03-12T05:00:56.612Z,9.20
2023-03-12T05:01:56.577Z,10.00
2023-03-12T05:02:56.610Z,9.70
2023-03-12T05:03:56.647Z,9.70
2023-03-12T05:04:56.547Z,8.90
2023-03-12T05:05:56.581Z,9.10
2023-03-12T05:06:56.554Z,8.80
2023-03-12T05:07:56.495Z,8.90
2023-03-12T05:08:56.563Z,8.30
2023-03-12T05:09:56.517Z,8.10
2023-03-12T05:10:56.486Z,7.70
2023-03-12T05:11:56.481Z,8.10
2023-03-12T05:12:56.473Z,8.00
2023-03-12T05:13:56.485Z,7.90
2023-03-12T05:14:56.449Z,7.90
2023-03-12T05:15:56.485Z,7.90
2023-03-12T05:16:56.458Z,8.10
2023-03-12T05:17:56.430Z,8.50
2023-03-12T05:18:56.443Z,8.40
2023-03-12T05:19:56.420Z,7.80
2023-03-12T05:20:56.425Z,8.20
2023-03-12T05:21:56.369Z,8.60
2023-03-12T05:22:56.357Z,8.20
2023-03-12T05:23:56.344Z,7.50
2023-03-12T05:24:56.301Z,7.90
2023-03-12T05:25:56.315Z,7.50
2023-03-12T05:26:56.302Z,8.80
2023-03-12T05:27:56.260Z,8.30
2023-03-12T05:28:56.301Z,7.90
2023-03-12T05:29:56.230Z,7.80
2023-03-12T05:30:56.269Z,8.30
2023-03-12T05:31:56.348Z,8.30
2023-03-12T05:32:56.251Z,8.10
2023-03-12T05:33:56.190Z,8.50
2023-03-12T05:34:56.221Z,9.20
2023-03-12T05:35:56.200Z,8.00
2023-03-12T05:36:56.159Z,8.50
2023-03-12T05:37:56.183Z,8.00
2023-03-12T05:38:56.188Z,7.90
2023-03-12T05:39:56.123Z,7.70
2023-03-12T05:40:56.201Z,8.30
2023-03-12T05:41:56.120Z,8.40
2023-03-12T05:42:56.136Z,8.50
2023-03-12T05:43:56.096Z,7.40
2023-03-12T05:44:56.095Z,7.60
2023-03-12T05:45:56.082Z,7.30
2023-03-12T05:46:58.735Z,7.70
2023-03-12T05:47:56.067Z,7.60
2023-03-12T05:48:56.053Z,7.10
2023-03-12T05:49:56.027Z,6.60
2023-03-12T05:50:56.041Z,7.70
2023-03-12T05:51:56.030Z,7.20
2023-03-12T05:52:56.035Z,6.90
2023-03-12T05:53:56.005Z,6.90
2023-03-12T05:54:55.981Z,7.40
2023-03-12T05:55:55.981Z,6.70
2023-03-12T05:56:55.968Z,6.70
2023-03-12T05:57:55.956Z,6.90
2023-03-12T05:58:55.962Z,7.00
2023-03-12T05:59:55.978Z,6.60
2023-03-12T06:00:55.918Z,6.60
2023-03-12T06:01:55.995Z,6.50
2023-03-12T06:02:56.006Z,6.70
2023-03-12T06:03:55.906Z,7.00
2023-03-12T06:04:55.882Z,7.00
2023-03-12T06:05:55.893Z,7.20
2023-03-12T06:06:55.889Z,7.40
2023-03-12T06:07:55.828Z,7.40
2023-03-12T06:08:55.878Z,7.70
2023-03-12T06:09:55.862Z,6.90
2023-03-12T06:10:55.839Z,7.80
2023-03-12T06:11:55.865Z,7.90
2023-03-12T06:12:55.797Z,7.60
2023-03-12T06:13:55.841Z,7.50
2023-03-12T06:14:55.802Z,7.70
2023-03-12T06:15:55.773Z,7.30
2023-03-12T06:16:55.860Z,6.60
2023-03-12T06:17:55.750Z,7.00
2023-03-12T06:18:55.746Z,5.50
2023-03-12T06:19:55.748Z,5.00
2023-03-12T06:20:55.710Z,4.40
2023-03-12T06:21:55.772Z,4.00
2023-03-12T06:22:55.719Z,2.70
2023-03-12T06:23:55.673Z,2.20
2023-03-12T06:24:55.678Z,2.50
2023-03-12T06:25:55.674Z,2.30
2023-03-12T06:26:55.677Z,2.40
2023-03-12T06:27:55.648Z,2.70
2023-03-12T06:28:55.679Z,2.00
2023-03-12T06:29:55.689Z,2.30
2023-03-12T06:30:55.648Z,1.90
2023-03-12T06:31:55.663Z,1.90
2023-03-12T06:32:55.680Z,1.90
2023-03-12T06:33:55.603Z,2.00
2023-03-12T06:34:55.577Z,2.10
2023-03-12T06:35:55.609Z,2.20
2023-03-12T06:36:55.554Z,2.00
2023-03-12T06:37:55.549Z,2.50
2023-03-12T06:38:57.240Z,2.00
2023-03-12T06:39:55.527Z,2.20
2023-03-12T06:40:55.513Z,1.80
2023-03-12T06:41:55.490Z,2.30
2023-03-12T06:42:55.527Z,2.00
2023-03-12T06:43:55.523Z,2.20
2023-03-12T06:44:55.546Z,2.30
2023-03-12T06:45:55.517Z,2.50
2023-03-12T06:46:55.447Z,2.30
2023-03-12T06:47:55.465Z,2.00
2023-03-12T06:48:55.430Z,2.30
2023-03-12T06:49:55.406Z,2.10
2023-03-12T06:50:55.418Z,2.20
2023-03-12T06:51:55.442Z,1.90
2023-03-12T06:52:55.399Z,2.30
2023-03-12T06:53:55.382Z,2.30
2023-03-12T06:54:56.266Z,1.90
2023-03-12T06:55:55.370Z,1.90
2023-03-12T06:56:55.363Z,1.90
2023-03-12T06:57:55.361Z,2.00
2023-03-12T06:58:55.313Z,2.30
2023-03-12T06:59:55.310Z,2.10
2023-03-12T07:00:55.320Z,1.90
2023-03-12T07:01:55.336Z,2.20
2023-03-12T07:02:55.293Z,2.30
2023-03-12T07:03:55.347Z,2.10
2023-03-12T07:04:55.273Z,2.10
2023-03-12T07:05:55.304Z,2.00
2023-03-12T07:06:55.268Z,2.20
2023-03-12T07:07:55.252Z,2.20
2023-03-12T07:08:55.237Z,2.20
2023-03-12T07:09:55.218Z,2.20
2023-03-12T07:10:55.210Z,2.10
2023-03-12T07:11:55.200Z,2.30
2023-03-12T07:12:55.231Z,2.30
2023-03-12T07:13:55.166Z,2.10
2023-03-12T07:14:55.167Z,1.90
2023-03-12T07:15:55.223Z,2.10
2023-03-12T07:16:55.168Z,2.50
2023-03-12T07:17:55.137Z,7.30
2023-03-12T07:18:55.139Z,4.10
2023-03-12T07:19:55.132Z,4.00
2023-03-12T07:20:55.097Z,3.10
2023-03-12T07:21:55.093Z,4.80
2023-03-12T07:22:55.084Z,5.10
2023-03-12T07:23:55.085Z,2.70
2023-03-12T07:24:55.078Z,2.50
2023-03-12T07:25:55.057Z,2.80
2023-03-12T07:26:55.085Z,3.10
2023-03-12T07:27:55.041Z,3.20
2023-03-12T07:28:55.061Z,4.20
2023-03-12T07:29:55.083Z,3.50
2023-03-12T07:30:55.022Z,2.60
2023-03-12T07:31:55.011Z,3.20
2023-03-12T07:32:55.036Z,3.00
2023-03-12T07:33:55.197Z,4.30
2023-03-12T07:34:54.979Z,6.30
2023-03-12T07:35:55.068Z,4.90
2023-03-12T07:36:55.050Z,4.30
2023-03-12T07:37:54.945Z,4.30
2023-03-12T07:38:54.933Z,4.00
2023-03-12T07:39:55.006Z,2.80
2023-03-12T07:40:54.972Z,2.90
2023-03-12T07:41:54.972Z,4.30
2023-03-12T07:42:54.890Z,3.80
2023-03-12T07:43:54.979Z,3.60
2023-03-12T07:44:54.857Z,4.10
2023-03-12T07:45:54.867Z,7.50
2023-03-12T07:46:55.014Z,4.20
2023-03-12T07:47:54.849Z,4.30
2023-03-12T07:48:55.251Z,6.80
2023-03-12T07:49:54.894Z,5.10
2023-03-12T07:50:54.807Z,4.40
2023-03-12T07:51:54.870Z,2.90
2023-03-12T07:52:54.791Z,2.70
2023-03-12T07:53:54.802Z,4.50
2023-03-12T07:54:54.795Z,5.30
2023-03-12T07:55:54.954Z,3.90
2023-03-12T07:56:54.856Z,3.20
2023-03-12T07:57:54.789Z,3.20
2023-03-12T07:58:55.336Z,3.00
2023-03-12T07:59:54.714Z,2.80
2023-03-12T08:00:54.687Z,2.90
2023-03-12T08:01:54.878Z,3.20
2023-03-12T08:02:55.049Z,3.10
2023-03-12T08:03:54.677Z,3.00
2023-03-12T08:04:54.762Z,3.10
2023-03-12T08:05:54.703Z,3.20
2023-03-12T08:06:54.677Z,3.70
2023-03-12T08:07:54.643Z,3.30
2023-03-12T08:08:54.639Z,3.30
2023-03-12T08:09:54.638Z,3.30
2023-03-12T08:10:54.601Z,3.30
2023-03-12T08:11:54.651Z,3.20
2023-03-12T08:12:54.626Z,3.40
2023-03-12T08:13:54.577Z,3.10
2023-03-12T08:14:54.539Z,3.50
2023-03-12T08:15:54.604Z,3.70
2023-03-12T08:16:54.517Z,3.40
2023-03-12T08:17:54.556Z,3.00
2023-03-12T08:18:54.496Z,3.30
2023-03-12T08:19:54.531Z,3.70
2023-03-12T08:20:54.534Z,3.60
2023-03-12T08:21:54.497Z,3.70
2023-03-12T08:22:54.503Z,3.40
2023-03-12T08:23:54.475Z,3.60
2023-03-12T08:24:54.470Z,3.40
2023-03-12T08:25:54.443Z,3.30
2023-03-12T08:26:54.419Z,3.40
2023-03-12T08:27:54.430Z,3.20
2023-03-12T08:28:54.415Z,3.80
2023-03-12T08:29:54.394Z,3.80
2023-03-12T08:30:54.370Z,3.60
2023-03-12T08:32:04.497Z,4.40
2023-03-12T08:32:54.522Z,4.00
2023-03-12T08:33:54.354Z,3.90
2023-03-12T08:34:54.341Z,3.90
2023-03-12T08:35:54.361Z,3.80
2023-03-12T08:36:54.333Z,3.70
2023-03-12T08:37:54.369Z,4.20
2023-03-12T08:38:54.326Z,3.80
2023-03-12T08:39:54.306Z,4.10
2023-03-12T08:40:54.319Z,3.70
2023-03-12T08:41:54.280Z,3.90
2023-03-12T08:42:54.247Z,3.60
2023-03-12T08:43:54.256Z,3.60
2023-03-12T08:44:54.276Z,3.70
2023-03-12T08:45:54.292Z,3.70
2023-03-12T08:46:54.241Z,4.10
2023-03-12T08:47:54.213Z,3.40
2023-03-12T08:48:54.227Z,3.70
2023-03-12T08:49:54.195Z,3.50
2023-03-12T08:50:54.192Z,3.50
2023-03-12T08:51:54.193Z,3.70
2023-03-12T08:52:54.183Z,3.90
2023-03-12T08:53:54.185Z,3.80
2023-03-12T08:54:54.169Z,3.90
2023-03-12T08:55:54.150Z,4.10
2023-03-12T08:56:54.152Z,3.90
2023-03-12T08:57:54.116Z,3.60
2023-03-12T08:58:54.108Z,3.70
2023-03-12T08:59:54.116Z,3.40
2023-03-12T09:00:54.082Z,3.60
2023-03-12T09:01:54.113Z,3.50
2023-03-12T09:02:54.133Z,3.90
2023-03-12T09:03:54.096Z,4.00
2023-03-12T09:04:54.128Z,3.90
2023-03-12T09:05:54.038Z,4.30
2023-03-12T09:06:54.027Z,3.60
2023-03-12T09:07:54.021Z,4.10
2023-03-12T09:08:54.033Z,4.40
2023-03-12T09:09:53.999Z,4.40
2023-03-12T09:10:54.006Z,4.00
2023-03-12T09:11:53.962Z,4.20
2023-03-12T09:12:53.940Z,4.00
2023-03-12T09:14:24.666Z,3.90
2023-03-12T09:15:09.246Z,4.40
2023-03-12T09:15:53.953Z,5.10
2023-03-12T09:16:53.990Z,4.00
2023-03-12T09:17:53.966Z,4.90
2023-03-12T09:18:53.936Z,4.70
2023-03-12T09:19:53.884Z,4.50
2023-03-12T09:20:53.899Z,4.60
2023-03-12T09:21:54.108Z,4.90
2023-03-12T09:22:53.849Z,5.10
2023-03-12T09:23:53.882Z,4.90
2023-03-12T09:24:53.822Z,5.90
2023-03-12T09:25:53.821Z,5.30
2023-03-12T09:26:53.860Z,5.50
2023-03-12T09:27:53.817Z,4.80
2023-03-12T09:28:53.793Z,5.10
2023-03-12T09:30:00.295Z,5.20
2023-03-12T09:30:53.840Z,5.80
2023-03-12T09:31:53.789Z,5.60
2023-03-12T09:32:53.899Z,6.00
2023-03-12T09:33:53.739Z,6.00
2023-03-12T09:34:53.732Z,5.50
2023-03-12T09:35:53.743Z,6.20
2023-03-12T09:36:53.726Z,6.30
2023-03-12T09:37:53.739Z,6.70
2023-03-12T09:38:53.695Z,6.10
2023-03-12T09:39:53.707Z,6.30
2023-03-12T09:40:53.702Z,6.40
2023-03-12T09:41:53.694Z,6.70
2023-03-12T09:42:53.669Z,7.10
2023-03-12T09:43:53.632Z,7.10
2023-03-12T09:44:53.634Z,7.20
2023-03-12T09:45:53.622Z,7.00
2023-03-12T09:46:53.593Z,7.20
2023-03-12T09:47:53.618Z,7.60
2023-03-12T09:48:53.591Z,8.40
2023-03-12T09:49:53.555Z,8.80
2023-03-12T09:50:53.546Z,8.00
2023-03-12T09:51:53.595Z,8.10
2023-03-12T09:52:53.550Z,7.80
2023-03-12T09:53:53.578Z,8.40
2023-03-12T09:54:53.503Z,7.80
2023-03-12T09:55:53.523Z,7.80
2023-03-12T09:56:53.538Z,8.10
2023-03-12T09:57:53.512Z,8.40
2023-03-12T09:58:53.476Z,8.10
2023-03-12T09:59:53.472Z,8.60
2023-03-12T10:00:53.466Z,8.60
2023-03-12T10:01:53.485Z,8.80
2023-03-12T10:02:53.490Z,9.40
2023-03-12T10:03:53.455Z,8.70
2023-03-12T10:04:59.917Z,8.70
2023-03-12T10:05:53.405Z,9.60
2023-03-12T10:06:53.412Z,9.20
2023-03-12T10:07:53.376Z,9.70
2023-03-12T10:08:53.462Z,9.90
2023-03-12T10:09:53.419Z,9.90
2023-03-12T10:10:53.339Z,10.00
2023-03-12T10:11:53.366Z,10.60
2023-03-12T10:12:53.376Z,10.70
2023-03-12T10:13:53.353Z,10.50
2023-03-12T10:14:53.322Z,10.90
2023-03-12T10:15:53.332Z,11.20
2023-03-12T10:16:53.281Z,11.20
2023-03-12T10:17:53.402Z,11.80
2023-03-12T10:18:53.421Z,11.80
2023-03-12T10:19:53.271Z,13.00
2023-03-12T10:20:53.260Z,11.60
2023-03-12T10:21:53.252Z,12.00
2023-03-12T10:22:53.248Z,14.70
2023-03-12T10:23:53.234Z,20.50
2023-03-12T10:24:53.192Z,16.10
2023-03-12T10:25:53.213Z,15.40
2023-03-12T10:26:53.181Z,12.00
2023-03-12T10:27:53.502Z,12.40
2023-03-12T10:28:53.170Z,11.80
2023-03-12T10:29:53.164Z,12.00
2023-03-12T10:30:53.153Z,11.80
2023-03-12T10:31:53.159Z,12.00
2023-03-12T10:32:53.188Z,11.60
2023-03-12T10:33:53.109Z,11.60
2023-03-12T10:34:55.110Z,11.10
2023-03-12T10:35:53.184Z,12.00
2023-03-12T10:36:53.162Z,11.80
2023-03-12T10:37:53.170Z,12.10
2023-03-12T10:38:53.180Z,11.40
2023-03-12T10:39:54.990Z,11.80
2023-03-12T10:40:53.123Z,13.00
2023-03-12T10:41:53.120Z,12.30
2023-03-12T10:42:53.475Z,11.90
2023-03-12T10:43:53.024Z,12.30
2023-03-12T10:44:53.105Z,12.70
2023-03-12T10:45:53.023Z,12.40
2023-03-12T10:46:53.937Z,12.60
2023-03-12T10:47:53.163Z,11.30
2023-03-12T10:48:53.071Z,11.50
2023-03-12T10:49:52.994Z,12.10
2023-03-12T10:50:52.955Z,12.10
2023-03-12T10:51:52.982Z,11.80
2023-03-12T10:52:53.033Z,13.00
2023-03-12T10:53:53.037Z,13.20
2023-03-12T10:54:53.026Z,14.00
2023-03-12T10:55:52.942Z,15.20
2023-03-12T10:56:52.966Z,15.20
2023-03-12T10:57:52.978Z,15.40
2023-03-12T10:58:52.986Z,16.60
2023-03-12T10:59:52.913Z,16.40
2023-03-12T11:00:52.849Z,16.30
2023-03-12T11:01:52.891Z,16.30
2023-03-12T11:02:52.813Z,16.60
2023-03-12T11:03:52.836Z,18.70
2023-03-12T11:04:52.799Z,18.50
2023-03-12T11:05:52.825Z,17.60
2023-03-12T11:06:52.757Z,18.40
2023-03-12T11:07:52.756Z,18.00
2023-03-12T11:08:56.590Z,18.90
2023-03-12T11:09:52.787Z,17.10
2023-03-12T11:10:52.745Z,19.20
2023-03-12T11:11:52.704Z,20.40
2023-03-12T11:12:52.717Z,19.20
2023-03-12T11:13:52.685Z,18.80
2023-03-12T11:14:52.686Z,19.00
2023-03-12T11:15:52.741Z,19.30
2023-03-12T11:16:52.673Z,20.10
2023-03-12T11:17:52.650Z,19.70
2023-03-12T11:18:52.724Z,19.70
2023-03-12T11:19:52.632Z,20.20
2023-03-12T11:20:52.637Z,20.00
2023-03-12T11:21:52.627Z,19.70
2023-03-12T11:22:52.617Z,21.00
2023-03-12T11:23:52.623Z,22.20
2023-03-12T11:24:52.590Z,22.00
2023-03-12T11:25:52.558Z,21.30
2023-03-12T11:26:52.561Z,23.10
2023-03-12T11:27:52.588Z,22.80
2023-03-12T11:28:52.550Z,22.80
2023-03-12T11:29:52.552Z,22.50
2023-03-12T11:30:52.582Z,23.50
2023-03-12T11:31:52.508Z,23.60
2023-03-12T11:32:52.552Z,22.30
2023-03-12T11:33:52.497Z,22.60
2023-03-12T11:34:52.541Z,21.60
2023-03-12T11:35:52.524Z,21.40
2023-03-12T11:36:52.449Z,22.00
2023-03-12T11:37:52.470Z,21.60
2023-03-12T11:38:52.445Z,22.10
2023-03-12T11:39:52.443Z,22.30
2023-03-12T11:40:52.415Z,22.40
2023-03-12T11:41:52.394Z,22.10
2023-03-12T11:42:52.400Z,22.50
2023-03-12T11:43:52.403Z,23.20
2023-03-12T11:44:52.383Z,22.40
2023-03-12T11:45:52.359Z,22.30
2023-03-12T11:46:52.393Z,23.80
2023-03-12T11:47:52.417Z,23.60
2023-03-12T11:48:52.334Z,24.00
2023-03-12T11:49:52.336Z,24.40
2023-03-12T11:50:52.305Z,24.40
2023-03-12T11:51:52.319Z,25.30
2023-03-12T11:52:52.321Z,25.80
2023-03-12T11:53:52.301Z,24.30
2023-03-12T11:54:52.306Z,25.80
2023-03-12T11:55:52.293Z,26.30
2023-03-12T11:56:52.254Z,26.20
2023-03-12T11:57:52.270Z,28.30
2023-03-12T11:58:52.249Z,28.60
2023-03-12T11:59:52.237Z,29.10
2023-03-12T12:00:52.281Z,29.60
2023-03-12T12:01:52.229Z,29.50
2023-03-12T12:02:52.237Z,29.70
2023-03-12T12:03:52.194Z,31.70
2023-03-12T12:04:52.193Z,30.70
2023-03-12T12:05:52.167Z,31.80
2023-03-12T12:06:52.167Z,32.20
2023-03-12T12:07:52.141Z,32.40
2023-03-12T12:08:52.149Z,32.10
2023-03-12T12:09:52.120Z,32.80
2023-03-12T12:10:52.149Z,32.80
2023-03-12T12:11:52.120Z,33.30
2023-03-12T12:12:52.100Z,33.60
2023-03-12T12:13:52.101Z,33.90
2023-03-12T12:14:52.095Z,32.80
2023-03-12T12:15:52.065Z,35.50
2023-03-12T12:16:52.135Z,35.20
2023-03-12T12:17:52.094Z,35.10
2023-03-12T12:18:52.085Z,35.80
2023-03-12T12:19:52.025Z,36.90
2023-03-12T12:20:52.006Z,37.70
2023-03-12T12:21:52.021Z,38.20
2023-03-12T12:22:52.015Z,37.70
2023-03-12T12:23:52.081Z,36.70
2023-03-12T12:24:51.993Z,38.30
2023-03-12T12:25:51.963Z,37.50
2023-03-12T12:26:51.991Z,37.50
2023-03-12T12:27:52.005Z,37.20
2023-03-12T12:28:51.983Z,38.10
2023-03-12T12:29:52.049Z,37.20
2023-03-12T12:30:51.936Z,39.10
2023-03-12T12:31:51.921Z,38.00
2023-03-12T12:32:51.948Z,39.00
2023-03-12T12:33:51.861Z,38.10
2023-03-12T12:34:51.861Z,37.20
2023-03-12T12:35:51.895Z,35.80
2023-03-12T12:36:51.857Z,37.10
2023-03-12T12:37:51.895Z,38.20
2023-03-12T12:38:51.828Z,37.90
2023-03-12T12:39:51.837Z,37.20
2023-03-12T12:40:51.812Z,36.40
2023-03-12T12:41:51.813Z,36.00
2023-03-12T12:42:51.797Z,34.90
2023-03-12T12:43:51.795Z,35.50
2023-03-12T12:44:51.767Z,35.00
2023-03-12T12:45:51.811Z,34.00
2023-03-12T12:46:51.770Z,32.40
2023-03-12T12:47:51.735Z,30.70
2023-03-12T12:48:51.740Z,31.10
2023-03-12T12:49:51.708Z,32.10
2023-03-12T12:50:51.771Z,28.80
2023-03-12T12:51:51.709Z,28.70
2023-03-12T12:52:51.733Z,28.90
2023-03-12T12:53:51.676Z,26.60
2023-03-12T12:54:51.677Z,27.80
2023-03-12T12:55:51.639Z,28.00
2023-03-12T12:56:51.677Z,27.30
2023-03-12T12:57:51.624Z,31.90
2023-03-12T12:58:51.654Z,28.30
2023-03-12T12:59:51.624Z,31.10
2023-03-12T13:00:51.681Z,33.50
2023-03-12T13:01:51.625Z,37.70
2023-03-12T13:02:52.446Z,44.10
2023-03-12T13:03:51.725Z,30.40
2023-03-12T13:04:51.659Z,26.50
2023-03-12T13:05:51.599Z,25.50
2023-03-12T13:06:51.639Z,25.30
2023-03-12T13:07:51.534Z,24.20
2023-03-12T13:08:51.581Z,25.60
2023-03-12T13:09:51.916Z,36.70
2023-03-12T13:10:57.943Z,29.80